Trail City, South Dakota
Current Conditions -  °F | °C
As of 5:52 AM on Friday 28 Nov 2014 (Local Time) from KMBG Reporting Station
Scattered Clouds Scattered Clouds  
Wind Chill:   Ceiling: Unl
Heat Index: 17°   Visibility: 10mi
Dew Point: 12°   Wind: 10mph
Humidity: 81%   Direction: 90°E
Pressure: 29.73"   Gusts: NA
Location:  45.47°N, 100.72°W
Report Text: KMBG 281252Z AUTO 09009KT 10SM SCT110 M08/M11 A2973 RMK AO2 SLP097 T10831111
Loading
Personal Weather Stations






























Interactive Weather Map New forecast layout! Learn more

10-Day Weather Forecast

Advertisements
Track Severe Weather on mobile